Time;durP1;ratioP1;P1;durP2;ratioP2;P2;SDS_P1;SDS_P2;PMS_P1;PMS_P2;Temp;Humidity;BMP_temperature;BMP_pressure;BME280_temperature;BME280_humidity;BME280_pressure;Samples;Min_cycle;Max_cycle;Signal;HPM_P1;HPM_P2
2023/06/02 00:03:03;;;;;;;11.60;6.55;;;;;;;;;;10411448;28;20025;-79
2023/06/02 00:08:05;;;;;;;13.98;6.80;;;;;;;;;;10446139;28;20071;-79
2023/06/02 00:13:07;;;;;;;10.00;6.30;;;;;;;;;;10446705;28;20043;-79
2023/06/02 00:18:08;;;;;;;13.10;6.53;;;;;;;;;;10446583;28;20390;-80
2023/06/02 00:23:10;;;;;;;12.85;7.22;;;;;;;;;;10434357;28;20108;-79
2023/06/02 00:28:11;;;;;;;11.50;6.53;;;;;;;;;;10445846;28;20530;-79
2023/06/02 00:33:12;;;;;;;10.13;6.75;;;;;;;;;;10445343;28;20425;-78
2023/06/02 00:38:13;;;;;;;12.98;7.65;;;;;;;;;;10445256;28;20025;-81
2023/06/02 00:43:14;;;;;;;13.80;6.43;;;;;;;;;;10445244;28;20024;-78
2023/06/02 00:48:15;;;;;;;18.38;7.70;;;;;;;;;;10442871;28;20384;-79
2023/06/02 00:53:16;;;;;;;14.15;7.20;;;;;;;;;;10445080;28;20049;-78
2023/06/02 00:58:17;;;;;;;15.77;8.13;;;;;;;;;;10444869;28;20036;-79
2023/06/02 01:03:21;;;;;;;15.80;7.88;;;;;;;;;;10445947;28;20041;-78
2023/06/02 01:08:22;;;;;;;16.17;8.23;;;;;;;;;;10411620;28;20469;-80
2023/06/02 01:13:23;;;;;;;16.38;7.80;;;;;;;;;;10444724;28;20043;-79
2023/06/02 01:18:29;;;;;;;14.63;7.68;;;;;;;;;;10445231;28;20263;-80
2023/06/02 01:23:33;;;;;;;15.30;8.13;;;;;;;;;;10433296;28;20025;-80
2023/06/02 01:28:35;;;;;;;18.23;8.63;;;;;;;;;;10444291;28;20048;-80
2023/06/02 01:33:43;;;;;;;17.42;8.32;;;;;;;;;;10443790;28;20388;-78
2023/06/02 01:38:45;;;;;;;16.15;7.80;;;;;;;;;;10444466;28;20033;-81
2023/06/02 01:43:47;;;;;;;18.40;8.35;;;;;;;;;;10443765;28;20082;-79
2023/06/02 01:48:48;;;;;;;18.00;9.27;;;;;;;;;;10444489;28;20135;-80
2023/06/02 01:53:49;;;;;;;16.25;8.57;;;;;;;;;;10442813;28;20053;-78
2023/06/02 01:58:52;;;;;;;16.10;8.55;;;;;;;;;;10444670;28;20025;-81
2023/06/02 02:03:54;;;;;;;13.85;7.65;;;;;;;;;;10444290;28;20033;-78
2023/06/02 02:08:55;;;;;;;17.45;8.27;;;;;;;;;;10443956;28;20025;-80
2023/06/02 02:13:56;;;;;;;18.83;8.38;;;;;;;;;;10443187;28;20080;-79
2023/06/02 02:18:58;;;;;;;18.05;8.50;;;;;;;;;;10449044;28;20025;-78
2023/06/02 02:23:59;;;;;;;15.73;8.40;;;;;;;;;;10424538;28;20057;-78
2023/06/02 02:29:00;;;;;;;17.67;8.63;;;;;;;;;;10410696;28;20199;-80
2023/06/02 02:34:01;;;;;;;17.38;8.02;;;;;;;;;;10409446;28;20064;-77
2023/06/02 02:39:03;;;;;;;16.15;8.35;;;;;;;;;;10409461;28;20048;-79
2023/06/02 02:44:04;;;;;;;20.55;9.05;;;;;;;;;;10409394;28;20034;-79
2023/06/02 02:49:06;;;;;;;15.82;8.68;;;;;;;;;;10408995;28;20025;-80
2023/06/02 02:54:07;;;;;;;18.27;8.07;;;;;;;;;;10408495;28;20148;-78
2023/06/02 02:59:08;;;;;;;19.05;8.48;;;;;;;;;;10407993;28;20041;-78
2023/06/02 03:04:09;;;;;;;18.70;8.45;;;;;;;;;;10398239;28;20033;-79
2023/06/02 03:09:10;;;;;;;16.33;8.18;;;;;;;;;;10367262;28;20029;-78
2023/06/02 03:14:12;;;;;;;16.02;8.70;;;;;;;;;;10367669;28;20069;-78
2023/06/02 03:19:13;;;;;;;16.48;8.35;;;;;;;;;;10370150;28;20037;-78
2023/06/02 03:24:15;;;;;;;20.75;8.32;;;;;;;;;;10391868;28;20036;-79
2023/06/02 03:29:16;;;;;;;17.17;8.73;;;;;;;;;;10370247;28;20045;-81
2023/06/02 03:34:18;;;;;;;17.60;8.77;;;;;;;;;;10408379;28;20434;-81
2023/06/02 03:39:19;;;;;;;17.08;8.77;;;;;;;;;;10441329;28;20029;-80
2023/06/02 03:44:20;;;;;;;14.93;8.68;;;;;;;;;;10440885;28;20087;-80
2023/06/02 03:49:26;;;;;;;13.20;7.53;;;;;;;;;;10443741;28;20032;-82
2023/06/02 03:54:27;;;;;;;;;;;;;;;;;;10442711;28;20044;-79
2023/06/02 03:59:30;;;;;;;14.88;7.38;;;;;;;;;;10441225;28;19916;-81
2023/06/02 04:04:31;;;;;;;22.27;8.82;;;;;;;;;;10446550;28;20497;-78
2023/06/02 04:09:32;;;;;;;19.75;7.82;;;;;;;;;;10439251;28;20045;-80
2023/06/02 04:14:34;;;;;;;18.42;8.68;;;;;;;;;;10421977;28;20120;-79
2023/06/02 04:19:35;;;;;;;16.58;7.70;;;;;;;;;;10440915;28;20040;-79
2023/06/02 04:24:40;;;;;;;17.80;8.15;;;;;;;;;;10431556;28;20053;-80
2023/06/02 04:29:41;;;;;;;15.27;7.67;;;;;;;;;;10438482;28;20477;-80
2023/06/02 04:34:42;;;;;;;16.10;8.15;;;;;;;;;;10436265;28;20033;-80
2023/06/02 04:39:47;;;;;;;17.13;7.55;;;;;;;;;;10419944;28;20032;-80
2023/06/02 04:44:48;;;;;;;18.77;8.65;;;;;;;;;;10444721;28;20848;-81
2023/06/02 04:49:49;;;;;;;12.98;7.03;;;;;;;;;;10432637;28;20112;-79
2023/06/02 04:54:50;;;;;;;13.98;7.30;;;;;;;;;;10444290;28;20057;-80
2023/06/02 04:59:51;;;;;;;14.82;7.15;;;;;;;;;;10444883;28;20032;-79
2023/06/02 05:04:52;;;;;;;16.05;6.82;;;;;;;;;;10444865;28;20120;-81
2023/06/02 05:09:53;;;;;;;15.45;7.65;;;;;;;;;;10431846;28;20618;-80
2023/06/02 05:14:54;;;;;;;16.08;7.20;;;;;;;;;;10444353;28;20043;-79
2023/06/02 05:19:56;;;;;;;16.92;7.03;;;;;;;;;;10444171;28;20095;-79
2023/06/02 05:24:57;;;;;;;12.95;7.00;;;;;;;;;;10444655;28;20413;-79
2023/06/02 05:29:58;;;;;;;16.73;7.00;;;;;;;;;;10444910;28;20029;-80
2023/06/02 05:34:59;;;;;;;9.95;6.43;;;;;;;;;;10443761;28;20041;-79
2023/06/02 05:40:00;;;;;;;14.50;6.18;;;;;;;;;;10444177;28;20028;-78
2023/06/02 05:45:05;;;;;;;14.63;6.78;;;;;;;;;;10443559;28;20396;-79
2023/06/02 05:50:06;;;;;;;16.92;6.43;;;;;;;;;;10444343;28;20484;-79
2023/06/02 05:55:08;;;;;;;10.30;5.75;;;;;;;;;;10450283;28;20048;-79
2023/06/02 06:00:09;;;;;;;19.15;7.43;;;;;;;;;;10451187;28;20029;-80
2023/06/02 06:05:10;;;;;;;13.43;6.75;;;;;;;;;;10451475;28;20025;-81
2023/06/02 06:10:11;;;;;;;13.82;6.90;;;;;;;;;;10451433;28;20122;-81
2023/06/02 06:15:12;;;;;;;11.50;7.20;;;;;;;;;;10451152;28;20029;-79
2023/06/02 06:20:15;;;;;;;14.23;7.13;;;;;;;;;;10451755;28;20071;-79
2023/06/02 06:25:16;;;;;;;16.83;7.38;;;;;;;;;;10450929;28;20362;-80
2023/06/02 06:30:19;;;;;;;10.48;5.93;;;;;;;;;;10450786;28;20820;-79
2023/06/02 06:35:20;;;;;;;13.23;6.68;;;;;;;;;;10450708;28;20040;-79
2023/06/02 06:40:21;;;;;;;9.63;5.63;;;;;;;;;;10449506;28;20524;-79
2023/06/02 06:45:22;;;;;;;12.52;6.07;;;;;;;;;;10449848;28;20431;-80
2023/06/02 06:50:23;;;;;;;13.07;5.60;;;;;;;;;;10449318;28;20032;-78
2023/06/02 06:55:24;;;;;;;11.98;5.85;;;;;;;;;;10449401;28;20562;-80
2023/06/02 07:00:25;;;;;;;8.45;4.40;;;;;;;;;;10449179;28;20032;-80
2023/06/02 07:05:26;;;;;;;13.77;5.13;;;;;;;;;;10448487;28;20025;-79
2023/06/02 07:10:27;;;;;;;12.32;4.85;;;;;;;;;;10449202;28;20107;-81
2023/06/02 07:15:28;;;;;;;7.60;4.53;;;;;;;;;;10449176;28;20039;-80
2023/06/02 07:20:30;;;;;;;12.38;5.30;;;;;;;;;;10448714;28;20032;-79
2023/06/02 07:25:31;;;;;;;7.10;3.65;;;;;;;;;;10447870;28;20039;-81
2023/06/02 07:30:32;;;;;;;9.20;3.45;;;;;;;;;;10448551;28;20036;-79
2023/06/02 07:35:33;;;;;;;7.22;3.83;;;;;;;;;;10447814;28;20033;-79
2023/06/02 07:40:34;;;;;;;8.13;4.05;;;;;;;;;;10447913;28;20481;-80
2023/06/02 07:45:35;;;;;;;8.60;4.10;;;;;;;;;;10446836;28;20407;-81
2023/06/02 07:50:36;;;;;;;9.48;4.10;;;;;;;;;;10446609;28;20051;-79
2023/06/02 07:55:37;;;;;;;6.50;3.83;;;;;;;;;;10447179;28;20045;-79
2023/06/02 08:00:38;;;;;;;8.10;3.80;;;;;;;;;;10446277;28;20569;-80
2023/06/02 08:05:39;;;;;;;7.40;3.45;;;;;;;;;;10446967;28;20055;-80
2023/06/02 08:10:41;;;;;;;5.55;3.22;;;;;;;;;;10446325;28;20457;-82
2023/06/02 08:15:42;;;;;;;6.13;3.65;;;;;;;;;;10432057;28;20051;-79
2023/06/02 08:20:45;;;;;;;8.35;3.92;;;;;;;;;;10446172;28;20033;-80
2023/06/02 08:25:46;;;;;;;9.07;3.45;;;;;;;;;;10445827;28;20079;-81
2023/06/02 08:30:47;;;;;;;6.63;3.30;;;;;;;;;;10445794;28;20049;-80
2023/06/02 08:35:50;;;;;;;8.95;3.60;;;;;;;;;;10445270;28;20044;-80
2023/06/02 08:40:52;;;;;;;10.80;4.07;;;;;;;;;;10445678;28;20037;-80
2023/06/02 08:45:54;;;;;;;10.20;3.78;;;;;;;;;;10445030;28;20029;-80
2023/06/02 08:50:58;;;;;;;7.78;3.42;;;;;;;;;;10445022;28;20037;-81
2023/06/02 08:55:59;;;;;;;7.93;3.50;;;;;;;;;;10445401;28;20044;-79
2023/06/02 09:01:02;;;;;;;8.07;3.92;;;;;;;;;;10444402;28;20033;-79
2023/06/02 09:06:19;;;;;;;9.52;4.10;;;;;;;;;;10444942;28;20044;-81
2023/06/02 09:11:20;;;;;;;7.05;4.50;;;;;;;;;;10444071;28;20033;-81
2023/06/02 09:16:22;;;;;;;7.18;4.15;;;;;;;;;;10444664;28;20388;-80
2023/06/02 09:21:26;;;;;;;8.05;3.63;;;;;;;;;;10444997;28;20568;-80
2023/06/02 09:26:30;;;;;;;6.27;3.80;;;;;;;;;;10447968;28;20381;-79
2023/06/02 09:31:44;;;;;;;5.65;3.38;;;;;;;;;;10452889;28;20029;-78
2023/06/02 09:36:47;;;;;;;8.18;3.78;;;;;;;;;;10452453;28;20358;-79
2023/06/02 09:41:54;;;;;;;10.48;3.70;;;;;;;;;;10452825;28;20034;-80
2023/06/02 09:46:55;;;;;;;8.15;3.50;;;;;;;;;;10451959;28;20052;-78
2023/06/02 09:52:10;;;;;;;6.20;3.25;;;;;;;;;;10452170;28;20064;-80
2023/06/02 09:57:12;;;;;;;7.43;4.28;;;;;;;;;;10451696;28;20037;-78
2023/06/02 10:02:14;;;;;;;8.45;3.70;;;;;;;;;;10452006;28;20037;-79
2023/06/02 10:07:15;;;;;;;9.02;3.88;;;;;;;;;;10451253;28;20028;-79
2023/06/02 10:12:27;;;;;;;5.95;3.20;;;;;;;;;;10450515;28;20083;-80
2023/06/02 10:17:35;;;;;;;8.88;3.47;;;;;;;;;;10451417;28;20397;-80
2023/06/02 10:22:39;;;;;;;5.93;3.05;;;;;;;;;;10450641;28;20060;-82
2023/06/02 10:27:44;;;;;;;5.88;2.80;;;;;;;;;;10450599;28;20024;-78
2023/06/02 10:32:47;;;;;;;6.35;3.17;;;;;;;;;;10450093;28;20550;-79
2023/06/02 10:38:08;;;;;;;6.43;3.13;;;;;;;;;;10448822;28;20370;-80
2023/06/02 10:43:11;;;;;;;9.15;3.15;;;;;;;;;;10449063;28;20025;-79
2023/06/02 10:48:38;;;;;;;9.10;3.20;;;;;;;;;;10449681;28;20025;-78
2023/06/02 10:53:58;;;;;;;8.35;3.42;;;;;;;;;;10427458;28;20056;-79
2023/06/02 10:58:59;;;;;;;7.05;2.92;;;;;;;;;;10449752;28;20381;-78
2023/06/02 11:04:20;;;;;;;5.03;3.10;;;;;;;;;;10448624;28;20039;-80
2023/06/02 11:09:34;;;;;;;4.93;3.25;;;;;;;;;;10448847;28;20044;-79
2023/06/02 11:14:54;;;;;;;7.55;3.40;;;;;;;;;;10424898;28;20466;-79
2023/06/02 11:19:55;;;;;;;7.75;3.00;;;;;;;;;;10448751;28;20728;-80
2023/06/02 11:24:56;;;;;;;8.50;2.75;;;;;;;;;;10448839;28;20033;-81
2023/06/02 11:30:04;;;;;;;7.07;3.15;;;;;;;;;;10448475;28;20144;-79
2023/06/02 11:35:07;;;;;;;7.60;2.97;;;;;;;;;;10448100;28;20127;-81
2023/06/02 11:40:12;;;;;;;6.93;3.42;;;;;;;;;;10447860;28;20024;-80
2023/06/02 11:45:22;;;;;;;8.13;2.97;;;;;;;;;;10447194;28;20021;-79
2023/06/02 11:50:23;;;;;;;3.80;2.63;;;;;;;;;;10447502;28;20484;-81
2023/06/02 11:55:31;;;;;;;7.78;3.00;;;;;;;;;;10447008;28;20787;-79
2023/06/02 12:00:34;;;;;;;6.03;2.95;;;;;;;;;;10446642;28;20552;-80
2023/06/02 12:05:36;;;;;;;10.15;2.88;;;;;;;;;;10447112;28;20115;-80
2023/06/02 12:10:38;;;;;;;4.78;2.65;;;;;;;;;;10447442;28;20570;-79
2023/06/02 12:15:39;;;;;;;6.85;2.33;;;;;;;;;;10446378;28;20029;-78
2023/06/02 12:20:40;;;;;;;5.35;2.67;;;;;;;;;;10446681;28;20032;-81
2023/06/02 12:25:42;;;;;;;6.40;2.40;;;;;;;;;;10430710;28;20056;-80
2023/06/02 12:30:47;;;;;;;6.70;2.47;;;;;;;;;;10394261;28;20056;-79
2023/06/02 12:35:48;;;;;;;5.13;2.72;;;;;;;;;;10417899;28;20720;-81
2023/06/02 12:40:51;;;;;;;5.50;2.50;;;;;;;;;;10386520;28;20030;-79
2023/06/02 12:45:52;;;;;;;7.85;2.70;;;;;;;;;;10393308;28;20488;-81
2023/06/02 12:50:53;;;;;;;4.47;2.70;;;;;;;;;;10399177;28;20033;-79
2023/06/02 12:55:54;;;;;;;7.72;2.38;;;;;;;;;;10394201;28;20436;-80
2023/06/02 13:00:55;;;;;;;6.07;2.65;;;;;;;;;;10402189;28;20064;-80
2023/06/02 13:05:57;;;;;;;4.63;2.53;;;;;;;;;;10393019;28;20076;-79
2023/06/02 13:10:59;;;;;;;5.40;2.80;;;;;;;;;;10397673;28;20041;-80
2023/06/02 13:16:00;;;;;;;4.40;2.70;;;;;;;;;;10398426;28;20662;-78
2023/06/02 13:21:01;;;;;;;6.30;2.70;;;;;;;;;;10399310;28;20120;-80
2023/06/02 13:26:02;;;;;;;8.77;2.88;;;;;;;;;;10411431;28;20037;-81
2023/06/02 13:31:03;;;;;;;6.85;2.95;;;;;;;;;;10407712;28;20795;-78
2023/06/02 13:36:04;;;;;;;5.82;2.75;;;;;;;;;;10408122;28;20045;-79
2023/06/02 13:41:05;;;;;;;4.53;2.63;;;;;;;;;;10399634;28;20103;-80
2023/06/02 13:46:06;;;;;;;5.53;2.58;;;;;;;;;;10397331;28;20030;-79
2023/06/02 13:51:07;;;;;;;7.13;3.05;;;;;;;;;;10399761;28;20692;-81
2023/06/02 13:56:08;;;;;;;5.38;3.45;;;;;;;;;;10401807;28;20046;-80
2023/06/02 14:01:10;;;;;;;8.68;3.17;;;;;;;;;;10400183;28;20508;-80
2023/06/02 14:06:11;;;;;;;8.80;3.30;;;;;;;;;;10401058;28;20037;-79
2023/06/02 14:11:12;;;;;;;7.07;3.40;;;;;;;;;;10403438;28;20018;-79
2023/06/02 14:16:13;;;;;;;7.20;3.50;;;;;;;;;;10407902;28;20389;-80
2023/06/02 14:21:14;;;;;;;9.93;3.25;;;;;;;;;;10409759;28;20037;-79
2023/06/02 14:26:16;;;;;;;6.68;2.92;;;;;;;;;;10409228;28;20025;-80
2023/06/02 14:31:18;;;;;;;6.80;3.10;;;;;;;;;;10408665;28;20120;-80
2023/06/02 14:36:19;;;;;;;6.55;3.53;;;;;;;;;;10408949;28;20145;-79
2023/06/02 14:41:22;;;;;;;5.93;3.20;;;;;;;;;;10409486;28;20592;-79
2023/06/02 14:46:23;;;;;;;7.65;3.60;;;;;;;;;;10408223;28;20040;-83
2023/06/02 14:51:24;;;;;;;3.97;2.67;;;;;;;;;;10406637;28;20045;-79
2023/06/02 14:56:26;;;;;;;5.32;3.25;;;;;;;;;;10392438;28;20057;-80
2023/06/02 15:01:27;;;;;;;8.80;2.92;;;;;;;;;;10407966;28;20041;-79
2023/06/02 15:06:28;;;;;;;5.50;2.72;;;;;;;;;;10399784;28;20034;-81
2023/06/02 15:11:29;;;;;;;4.28;2.42;;;;;;;;;;10406703;28;20045;-81
2023/06/02 15:16:31;;;;;;;4.65;2.50;;;;;;;;;;10404708;28;20037;-79
2023/06/02 15:21:32;;;;;;;4.47;2.38;;;;;;;;;;10406469;28;20120;-80
2023/06/02 15:26:33;;;;;;;4.10;2.05;;;;;;;;;;10402782;28;20424;-80
2023/06/02 15:31:34;;;;;;;4.38;3.17;;;;;;;;;;10403167;28;20037;-82
2023/06/02 15:36:35;;;;;;;5.43;2.55;;;;;;;;;;10403933;28;20098;-81
2023/06/02 15:41:40;;;;;;;8.00;3.38;;;;;;;;;;10406349;28;20037;-82
2023/06/02 15:46:42;;;;;;;7.18;3.17;;;;;;;;;;10392965;28;20030;-80
2023/06/02 15:51:45;;;;;;;5.97;3.28;;;;;;;;;;10405696;28;20053;-80
2023/06/02 15:56:46;;;;;;;6.63;3.25;;;;;;;;;;10402340;28;20610;-81
2023/06/02 16:01:47;;;;;;;7.30;3.15;;;;;;;;;;10400254;28;20033;-82
2023/06/02 16:06:48;;;;;;;5.60;2.80;;;;;;;;;;10393799;28;20040;-82
2023/06/02 16:11:49;;;;;;;7.07;4.20;;;;;;;;;;10401658;28;20485;-80
2023/06/02 16:16:50;;;;;;;7.22;3.55;;;;;;;;;;10393403;28;20038;-82
2023/06/02 16:21:51;;;;;;;8.32;3.92;;;;;;;;;;10400732;28;20033;-81
2023/06/02 16:26:52;;;;;;;9.30;3.78;;;;;;;;;;10402158;28;20128;-81
2023/06/02 16:31:53;;;;;;;5.93;3.85;;;;;;;;;;10396607;28;20073;-83
2023/06/02 16:36:54;;;;;;;8.27;4.13;;;;;;;;;;10397461;28;20055;-83
2023/06/02 16:41:55;;;;;;;11.77;4.97;;;;;;;;;;10392622;28;20106;-80
2023/06/02 16:46:56;;;;;;;10.05;3.85;;;;;;;;;;10392775;28;20090;-83
2023/06/02 16:51:57;;;;;;;6.93;3.97;;;;;;;;;;10404100;28;20060;-81
2023/06/02 16:56:58;;;;;;;8.43;4.78;;;;;;;;;;10432727;28;20084;-81
2023/06/02 17:02:01;;;;;;;17.83;8.95;;;;;;;;;;10418595;28;20052;-81
2023/06/02 17:07:04;;;;;;;10.77;5.13;;;;;;;;;;10409307;28;20116;-81
2023/06/02 17:12:06;;;;;;;8.25;3.92;;;;;;;;;;10416315;28;20072;-82
2023/06/02 17:17:07;;;;;;;5.93;3.40;;;;;;;;;;10423185;28;20416;-82
2023/06/02 17:22:08;;;;;;;5.93;3.50;;;;;;;;;;10412060;28;20040;-81
2023/06/02 17:27:11;;;;;;;8.75;4.10;;;;;;;;;;10402156;28;20556;-81
2023/06/02 17:32:14;;;;;;;6.68;3.80;;;;;;;;;;10397257;28;20033;-81
2023/06/02 17:37:16;;;;;;;8.65;3.88;;;;;;;;;;10402780;28;20037;-83
2023/06/02 17:42:17;;;;;;;6.93;4.00;;;;;;;;;;10401449;28;20065;-80
2023/06/02 17:47:18;;;;;;;6.95;4.03;;;;;;;;;;10396868;28;20026;-79
2023/06/02 17:52:23;;;;;;;7.18;3.45;;;;;;;;;;10405255;28;20054;-80
2023/06/02 17:57:24;;;;;;;10.32;4.25;;;;;;;;;;10404839;28;20084;-80
2023/06/02 18:02:25;;;;;;;6.40;3.67;;;;;;;;;;10398782;28;20028;-81
2023/06/02 18:07:26;;;;;;;7.22;4.40;;;;;;;;;;10402796;28;20026;-82
2023/06/02 18:12:27;;;;;;;7.38;4.28;;;;;;;;;;10402973;28;20044;-80
2023/06/02 18:17:28;;;;;;;9.05;3.60;;;;;;;;;;10409685;28;20045;-82
2023/06/02 18:22:30;;;;;;;6.80;4.07;;;;;;;;;;10427574;28;20162;-82
2023/06/02 18:27:31;;;;;;;8.50;3.78;;;;;;;;;;10408789;28;20029;-82
2023/06/02 18:32:32;;;;;;;4.53;3.30;;;;;;;;;;10406602;28;20079;-82
2023/06/02 18:37:34;;;;;;;7.65;3.75;;;;;;;;;;10435515;28;20064;-81
2023/06/02 18:42:37;;;;;;;6.95;4.03;;;;;;;;;;10402763;28;20026;-82
2023/06/02 18:47:38;;;;;;;6.63;3.80;;;;;;;;;;10418329;28;20038;-80
2023/06/02 18:52:39;;;;;;;5.95;3.20;;;;;;;;;;10441459;28;20111;-82
2023/06/02 18:57:40;;;;;;;7.80;3.90;;;;;;;;;;10423686;28;20443;-84
2023/06/02 19:02:44;;;;;;;7.20;3.90;;;;;;;;;;10401643;28;20111;-80
2023/06/02 19:07:44;;;;;;;5.95;3.80;;;;;;;;;;10427647;28;20013;-80
2023/06/02 19:12:45;;;;;;;12.15;3.40;;;;;;;;;;10427211;28;20039;-81
2023/06/02 19:17:50;;;;;;;7.68;4.38;;;;;;;;;;10421421;28;20559;-80
2023/06/02 19:22:51;;;;;;;7.65;3.65;;;;;;;;;;10424644;28;20037;-80
2023/06/02 19:27:52;;;;;;;7.63;3.88;;;;;;;;;;10421186;28;20041;-80
2023/06/02 19:32:53;;;;;;;8.55;4.35;;;;;;;;;;10408600;28;20039;-79
2023/06/02 19:37:54;;;;;;;10.20;4.10;;;;;;;;;;10421106;28;20069;-80
2023/06/02 19:42:55;;;;;;;8.07;4.50;;;;;;;;;;10409844;28;20029;-81
2023/06/02 19:47:56;;;;;;;9.45;4.53;;;;;;;;;;10385449;28;20034;-80
2023/06/02 19:52:57;;;;;;;10.35;5.18;;;;;;;;;;10366393;28;20056;-79
2023/06/02 19:57:58;;;;;;;8.55;4.10;;;;;;;;;;10369258;28;20037;-80
2023/06/02 20:02:59;;;;;;;8.52;4.50;;;;;;;;;;10386348;28;20034;-82
2023/06/02 20:08:00;;;;;;;10.38;4.85;;;;;;;;;;10379032;28;20038;-81
2023/06/02 20:13:01;;;;;;;6.85;3.92;;;;;;;;;;10378244;28;20497;-80
2023/06/02 20:18:03;;;;;;;7.70;4.10;;;;;;;;;;10365115;28;20037;-81
2023/06/02 20:23:04;;;;;;;11.88;4.80;;;;;;;;;;10376627;28;20847;-80
2023/06/02 20:28:07;;;;;;;11.32;4.22;;;;;;;;;;10390057;28;20084;-79
2023/06/02 20:33:09;;;;;;;8.35;4.15;;;;;;;;;;10398916;28;20025;-80
2023/06/02 20:38:10;;;;;;;7.30;3.70;;;;;;;;;;10378697;28;20095;-79
2023/06/02 20:43:11;;;;;;;8.90;3.90;;;;;;;;;;10405057;28;20037;-80
2023/06/02 20:48:12;;;;;;;10.18;3.60;;;;;;;;;;10377731;28;20470;-79
2023/06/02 20:53:16;;;;;;;6.82;3.78;;;;;;;;;;10370911;28;20100;-80
2023/06/02 20:58:17;;;;;;;6.95;3.08;;;;;;;;;;10405068;28;20045;-79
2023/06/02 21:03:18;;;;;;;7.22;4.00;;;;;;;;;;10397459;28;20048;-79
2023/06/02 21:08:19;;;;;;;11.68;3.95;;;;;;;;;;10439383;28;20393;-79
2023/06/02 21:13:20;;;;;;;8.73;4.95;;;;;;;;;;10433616;28;20041;-81
2023/06/02 21:18:21;;;;;;;11.00;4.38;;;;;;;;;;10432943;28;20075;-79
2023/06/02 21:23:23;;;;;;;11.27;5.53;;;;;;;;;;10449839;28;20029;-80
2023/06/02 21:28:24;;;;;;;7.37;4.53;;;;;;;;;;10441913;28;20026;-79
2023/06/02 21:33:26;;;;;;;8.50;4.53;;;;;;;;;;10433621;28;20124;-79
2023/06/02 21:38:28;;;;;;;7.67;4.27;;;;;;;;;;10438256;28;20040;-79
2023/06/02 21:43:29;;;;;;;8.87;4.90;;;;;;;;;;10434012;28;20033;-80
2023/06/02 21:48:31;;;;;;;10.53;5.03;;;;;;;;;;10442416;28;20037;-80
2023/06/02 21:53:32;;;;;;;10.63;6.10;;;;;;;;;;10451777;28;20041;-79
2023/06/02 21:58:33;;;;;;;8.80;5.50;;;;;;;;;;10441230;28;20037;-81
2023/06/02 22:03:35;;;;;;;10.00;5.23;;;;;;;;;;10424652;28;20112;-81
2023/06/02 22:08:36;;;;;;;14.67;5.97;;;;;;;;;;10432720;28;20025;-81
2023/06/02 22:13:37;;;;;;;11.10;5.57;;;;;;;;;;10451840;28;20041;-80
2023/06/02 22:18:38;;;;;;;11.03;6.07;;;;;;;;;;10430931;28;20511;-80
2023/06/02 22:23:39;;;;;;;13.40;6.73;;;;;;;;;;10444289;28;20025;-80
2023/06/02 22:28:40;;;;;;;13.40;6.50;;;;;;;;;;10450973;28;20108;-80
2023/06/02 22:33:44;;;;;;;10.23;6.37;;;;;;;;;;10422935;28;20037;-81
2023/06/02 22:38:45;;;;;;;10.60;6.23;;;;;;;;;;10445359;28;20024;-80
2023/06/02 22:43:46;;;;;;;10.17;6.13;;;;;;;;;;10450403;28;20071;-80
2023/06/02 22:48:49;;;;;;;13.87;7.17;;;;;;;;;;10444133;28;20593;-79
2023/06/02 22:53:50;;;;;;;10.97;5.73;;;;;;;;;;10450039;28;20049;-80
2023/06/02 22:58:51;;;;;;;12.03;6.60;;;;;;;;;;10448183;28;20724;-78
2023/06/02 23:03:52;;;;;;;11.20;6.40;;;;;;;;;;10448519;28;20041;-81
2023/06/02 23:08:53;;;;;;;16.27;7.53;;;;;;;;;;10448472;28;20025;-79
2023/06/02 23:13:54;;;;;;;13.47;6.37;;;;;;;;;;10449808;28;20581;-79
2023/06/02 23:18:55;;;;;;;11.03;5.77;;;;;;;;;;10437007;28;20029;-80
2023/06/02 23:23:56;;;;;;;11.30;5.50;;;;;;;;;;10437723;28;20033;-81
2023/06/02 23:28:57;;;;;;;10.70;5.47;;;;;;;;;;10442329;28;20033;-79
2023/06/02 23:33:58;;;;;;;8.33;4.97;;;;;;;;;;10438075;28;20059;-79
2023/06/02 23:38:59;;;;;;;7.70;4.50;;;;;;;;;;10448892;28;20637;-80
2023/06/02 23:44:00;;;;;;;11.83;4.40;;;;;;;;;;10447684;28;20074;-79
2023/06/02 23:49:01;;;;;;;10.07;4.60;;;;;;;;;;10440390;28;20137;-79
2023/06/02 23:54:02;;;;;;;8.77;4.60;;;;;;;;;;10412339;28;20049;-79
2023/06/02 23:59:03;;;;;;;7.57;4.27;;;;;;;;;;10447187;28;20028;-80
